sensor_id;sensor_type;location;lat;lon;timestamp;P1;durP1;ratioP1;P2;durP2;ratioP2
39214;SDS011;24932;51.746;14.334;2022-10-16T00:00:41;11.75;;;10.13;;
39214;SDS011;24932;51.746;14.334;2022-10-16T00:04:40;12.82;;;8.93;;
39214;SDS011;24932;51.746;14.334;2022-10-16T00:08:40;16.58;;;10.8;;
39214;SDS011;24932;51.746;14.334;2022-10-16T00:12:41;12.23;;;9.2;;
39214;SDS011;24932;51.746;14.334;2022-10-16T00:16:41;15.07;;;10.77;;
39214;SDS011;24932;51.746;14.334;2022-10-16T00:20:40;13.25;;;9.57;;
39214;SDS011;24932;51.746;14.334;2022-10-16T00:24:40;13.75;;;10.82;;
39214;SDS011;24932;51.746;14.334;2022-10-16T00:28:41;17.83;;;9.32;;
39214;SDS011;24932;51.746;14.334;2022-10-16T00:32:41;19.7;;;10.85;;
39214;SDS011;24932;51.746;14.334;2022-10-16T00:36:40;14.77;;;10.38;;
39214;SDS011;24932;51.746;14.334;2022-10-16T00:40:40;11.65;;;9.55;;
39214;SDS011;24932;51.746;14.334;2022-10-16T00:44:42;15.27;;;10.98;;
39214;SDS011;24932;51.746;14.334;2022-10-16T00:48:40;17.75;;;10.82;;
39214;SDS011;24932;51.746;14.334;2022-10-16T00:52:41;14.87;;;10.88;;
39214;SDS011;24932;51.746;14.334;2022-10-16T00:56:40;11.5;;;9.52;;
39214;SDS011;24932;51.746;14.334;2022-10-16T01:00:40;15.93;;;10.65;;
39214;SDS011;24932;51.746;14.334;2022-10-16T01:04:41;17.73;;;10.98;;
39214;SDS011;24932;51.746;14.334;2022-10-16T01:08:44;12.8;;;10.4;;
39214;SDS011;24932;51.746;14.334;2022-10-16T01:12:46;14.93;;;10.38;;
39214;SDS011;24932;51.746;14.334;2022-10-16T01:16:42;16.77;;;11.8;;
39214;SDS011;24932;51.746;14.334;2022-10-16T01:20:42;16.42;;;11.35;;
39214;SDS011;24932;51.746;14.334;2022-10-16T01:24:43;19.12;;;11.25;;
39214;SDS011;24932;51.746;14.334;2022-10-16T01:28:41;19.8;;;11.8;;
39214;SDS011;24932;51.746;14.334;2022-10-16T01:32:41;15.73;;;11.57;;
39214;SDS011;24932;51.746;14.334;2022-10-16T01:36:41;19.17;;;11.85;;
39214;SDS011;24932;51.746;14.334;2022-10-16T01:40:41;14.43;;;10.85;;
39214;SDS011;24932;51.746;14.334;2022-10-16T01:44:40;18.77;;;11.9;;
39214;SDS011;24932;51.746;14.334;2022-10-16T01:48:41;15.73;;;11.98;;
39214;SDS011;24932;51.746;14.334;2022-10-16T01:52:42;17.9;;;12.65;;
39214;SDS011;24932;51.746;14.334;2022-10-16T01:56:40;16.58;;;11.77;;
39214;SDS011;24932;51.746;14.334;2022-10-16T02:00:41;20.05;;;12.1;;
39214;SDS011;24932;51.746;14.334;2022-10-16T02:04:42;19.25;;;12.75;;
39214;SDS011;24932;51.746;14.334;2022-10-16T02:08:40;25.27;;;13.23;;
39214;SDS011;24932;51.746;14.334;2022-10-16T02:12:42;18.98;;;12.2;;
39214;SDS011;24932;51.746;14.334;2022-10-16T02:16:41;21.05;;;13.6;;
39214;SDS011;24932;51.746;14.334;2022-10-16T02:20:43;18.1;;;12.5;;
39214;SDS011;24932;51.746;14.334;2022-10-16T02:24:43;20.15;;;13.52;;
39214;SDS011;24932;51.746;14.334;2022-10-16T02:28:41;17.9;;;13.3;;
39214;SDS011;24932;51.746;14.334;2022-10-16T02:32:41;17.35;;;12.8;;
39214;SDS011;24932;51.746;14.334;2022-10-16T02:36:40;22.52;;;13.95;;
39214;SDS011;24932;51.746;14.334;2022-10-16T02:40:40;18.33;;;13.45;;
39214;SDS011;24932;51.746;14.334;2022-10-16T02:44:41;17.87;;;12.6;;
39214;SDS011;24932;51.746;14.334;2022-10-16T02:48:40;13.98;;;12.07;;
39214;SDS011;24932;51.746;14.334;2022-10-16T02:52:40;16.52;;;12.45;;
39214;SDS011;24932;51.746;14.334;2022-10-16T02:56:41;17.3;;;12.05;;
39214;SDS011;24932;51.746;14.334;2022-10-16T03:00:40;14.15;;;11.25;;
39214;SDS011;24932;51.746;14.334;2022-10-16T03:04:40;18.02;;;11.48;;
39214;SDS011;24932;51.746;14.334;2022-10-16T03:08:39;15.0;;;11.8;;
39214;SDS011;24932;51.746;14.334;2022-10-16T03:12:40;13.82;;;11.35;;
39214;SDS011;24932;51.746;14.334;2022-10-16T03:16:40;20.23;;;11.4;;
39214;SDS011;24932;51.746;14.334;2022-10-16T03:20:40;12.93;;;11.63;;
39214;SDS011;24932;51.746;14.334;2022-10-16T03:24:40;15.05;;;10.93;;
39214;SDS011;24932;51.746;14.334;2022-10-16T03:28:40;14.07;;;10.63;;
39214;SDS011;24932;51.746;14.334;2022-10-16T03:32:39;16.87;;;11.1;;
39214;SDS011;24932;51.746;14.334;2022-10-16T03:36:40;15.0;;;11.6;;
39214;SDS011;24932;51.746;14.334;2022-10-16T03:40:40;14.4;;;11.45;;
39214;SDS011;24932;51.746;14.334;2022-10-16T03:44:40;16.15;;;12.5;;
39214;SDS011;24932;51.746;14.334;2022-10-16T03:48:40;12.4;;;10.18;;
39214;SDS011;24932;51.746;14.334;2022-10-16T03:52:40;14.27;;;11.27;;
39214;SDS011;24932;51.746;14.334;2022-10-16T03:56:40;14.68;;;10.93;;
39214;SDS011;24932;51.746;14.334;2022-10-16T04:00:40;13.1;;;11.25;;
39214;SDS011;24932;51.746;14.334;2022-10-16T04:04:40;15.7;;;11.0;;
39214;SDS011;24932;51.746;14.334;2022-10-16T04:08:42;15.88;;;10.85;;
39214;SDS011;24932;51.746;14.334;2022-10-16T04:12:39;12.45;;;10.48;;
39214;SDS011;24932;51.746;14.334;2022-10-16T04:16:41;14.5;;;11.35;;
39214;SDS011;24932;51.746;14.334;2022-10-16T04:20:40;13.32;;;9.57;;
39214;SDS011;24932;51.746;14.334;2022-10-16T04:24:40;11.55;;;10.38;;
39214;SDS011;24932;51.746;14.334;2022-10-16T04:28:39;13.02;;;10.4;;
39214;SDS011;24932;51.746;14.334;2022-10-16T04:32:41;11.73;;;10.52;;
39214;SDS011;24932;51.746;14.334;2022-10-16T04:36:40;12.55;;;9.93;;
39214;SDS011;24932;51.746;14.334;2022-10-16T04:40:41;12.07;;;9.55;;
39214;SDS011;24932;51.746;14.334;2022-10-16T04:44:40;11.6;;;10.2;;
39214;SDS011;24932;51.746;14.334;2022-10-16T04:48:40;11.1;;;9.95;;
39214;SDS011;24932;51.746;14.334;2022-10-16T04:52:40;13.75;;;11.45;;
39214;SDS011;24932;51.746;14.334;2022-10-16T04:56:41;12.27;;;11.0;;
39214;SDS011;24932;51.746;14.334;2022-10-16T05:00:41;15.68;;;11.32;;
39214;SDS011;24932;51.746;14.334;2022-10-16T05:04:40;14.82;;;11.7;;
39214;SDS011;24932;51.746;14.334;2022-10-16T05:08:40;12.93;;;10.8;;
39214;SDS011;24932;51.746;14.334;2022-10-16T05:12:40;12.95;;;10.4;;
39214;SDS011;24932;51.746;14.334;2022-10-16T05:16:40;13.25;;;11.75;;
39214;SDS011;24932;51.746;14.334;2022-10-16T05:20:40;12.85;;;11.48;;
39214;SDS011;24932;51.746;14.334;2022-10-16T05:24:40;12.9;;;11.27;;
39214;SDS011;24932;51.746;14.334;2022-10-16T05:28:39;13.38;;;11.5;;
39214;SDS011;24932;51.746;14.334;2022-10-16T05:32:40;14.05;;;11.25;;
39214;SDS011;24932;51.746;14.334;2022-10-16T05:36:40;12.45;;;11.15;;
39214;SDS011;24932;51.746;14.334;2022-10-16T05:40:40;13.8;;;11.8;;
39214;SDS011;24932;51.746;14.334;2022-10-16T05:44:41;13.77;;;12.07;;
39214;SDS011;24932;51.746;14.334;2022-10-16T05:48:39;14.43;;;10.85;;
39214;SDS011;24932;51.746;14.334;2022-10-16T05:52:40;13.65;;;11.5;;
39214;SDS011;24932;51.746;14.334;2022-10-16T05:56:41;13.2;;;11.0;;
39214;SDS011;24932;51.746;14.334;2022-10-16T06:00:40;12.75;;;11.3;;
39214;SDS011;24932;51.746;14.334;2022-10-16T06:04:40;14.48;;;11.12;;
39214;SDS011;24932;51.746;14.334;2022-10-16T06:08:39;12.88;;;11.52;;
39214;SDS011;24932;51.746;14.334;2022-10-16T06:12:39;13.88;;;11.12;;
39214;SDS011;24932;51.746;14.334;2022-10-16T06:16:40;13.15;;;11.8;;
39214;SDS011;24932;51.746;14.334;2022-10-16T06:20:40;13.65;;;11.02;;
39214;SDS011;24932;51.746;14.334;2022-10-16T06:24:40;12.7;;;10.93;;
39214;SDS011;24932;51.746;14.334;2022-10-16T06:28:41;12.48;;;10.6;;
39214;SDS011;24932;51.746;14.334;2022-10-16T06:32:41;12.05;;;10.68;;
39214;SDS011;24932;51.746;14.334;2022-10-16T06:36:40;18.23;;;11.6;;
39214;SDS011;24932;51.746;14.334;2022-10-16T06:40:41;11.57;;;10.13;;
39214;SDS011;24932;51.746;14.334;2022-10-16T06:44:40;11.35;;;10.15;;
39214;SDS011;24932;51.746;14.334;2022-10-16T06:48:39;13.48;;;10.5;;
39214;SDS011;24932;51.746;14.334;2022-10-16T06:52:40;10.65;;;9.48;;
39214;SDS011;24932;51.746;14.334;2022-10-16T06:56:40;11.55;;;9.05;;
39214;SDS011;24932;51.746;14.334;2022-10-16T07:00:40;14.35;;;9.5;;
39214;SDS011;24932;51.746;14.334;2022-10-16T07:04:40;9.25;;;8.3;;
39214;SDS011;24932;51.746;14.334;2022-10-16T07:08:41;9.55;;;8.4;;
39214;SDS011;24932;51.746;14.334;2022-10-16T07:12:40;14.95;;;8.1;;
39214;SDS011;24932;51.746;14.334;2022-10-16T07:16:40;11.48;;;7.55;;
39214;SDS011;24932;51.746;14.334;2022-10-16T07:20:40;11.6;;;8.45;;
39214;SDS011;24932;51.746;14.334;2022-10-16T07:24:40;8.65;;;7.15;;
39214;SDS011;24932;51.746;14.334;2022-10-16T07:28:40;9.27;;;7.57;;
39214;SDS011;24932;51.746;14.334;2022-10-16T07:32:40;12.93;;;6.22;;
39214;SDS011;24932;51.746;14.334;2022-10-16T07:36:40;7.07;;;6.3;;
39214;SDS011;24932;51.746;14.334;2022-10-16T07:40:40;6.87;;;6.1;;
39214;SDS011;24932;51.746;14.334;2022-10-16T07:44:40;8.48;;;5.05;;
39214;SDS011;24932;51.746;14.334;2022-10-16T07:48:40;6.5;;;4.72;;
39214;SDS011;24932;51.746;14.334;2022-10-16T07:52:40;8.13;;;4.35;;
39214;SDS011;24932;51.746;14.334;2022-10-16T07:56:44;4.25;;;3.85;;
39214;SDS011;24932;51.746;14.334;2022-10-16T08:00:41;5.37;;;3.65;;
39214;SDS011;24932;51.746;14.334;2022-10-16T08:04:40;6.45;;;3.33;;
39214;SDS011;24932;51.746;14.334;2022-10-16T08:08:40;6.6;;;3.8;;
39214;SDS011;24932;51.746;14.334;2022-10-16T08:12:40;4.72;;;4.0;;
39214;SDS011;24932;51.746;14.334;2022-10-16T08:16:39;4.85;;;3.35;;
39214;SDS011;24932;51.746;14.334;2022-10-16T08:20:41;3.8;;;3.5;;
39214;SDS011;24932;51.746;14.334;2022-10-16T08:24:40;4.07;;;3.6;;
39214;SDS011;24932;51.746;14.334;2022-10-16T08:28:40;4.32;;;3.92;;
39214;SDS011;24932;51.746;14.334;2022-10-16T08:32:40;4.25;;;3.85;;
39214;SDS011;24932;51.746;14.334;2022-10-16T08:36:41;7.03;;;3.7;;
39214;SDS011;24932;51.746;14.334;2022-10-16T08:40:41;3.9;;;3.58;;
39214;SDS011;24932;51.746;14.334;2022-10-16T08:44:51;4.18;;;3.78;;
39214;SDS011;24932;51.746;14.334;2022-10-16T08:48:42;3.3;;;3.05;;
39214;SDS011;24932;51.746;14.334;2022-10-16T08:52:41;3.28;;;3.05;;
39214;SDS011;24932;51.746;14.334;2022-10-16T08:56:40;3.37;;;2.55;;
39214;SDS011;24932;51.746;14.334;2022-10-16T09:00:40;2.6;;;2.37;;
39214;SDS011;24932;51.746;14.334;2022-10-16T09:04:44;2.53;;;2.33;;
39214;SDS011;24932;51.746;14.334;2022-10-16T09:08:43;2.75;;;2.42;;
39214;SDS011;24932;51.746;14.334;2022-10-16T09:12:42;3.85;;;1.65;;
39214;SDS011;24932;51.746;14.334;2022-10-16T09:16:42;2.0;;;1.8;;
39214;SDS011;24932;51.746;14.334;2022-10-16T09:20:43;2.17;;;1.35;;
39214;SDS011;24932;51.746;14.334;2022-10-16T09:24:40;1.3;;;1.2;;
39214;SDS011;24932;51.746;14.334;2022-10-16T09:28:39;2.65;;;2.22;;
39214;SDS011;24932;51.746;14.334;2022-10-16T09:32:41;1.85;;;1.75;;
39214;SDS011;24932;51.746;14.334;2022-10-16T09:36:41;1.9;;;1.75;;
39214;SDS011;24932;51.746;14.334;2022-10-16T09:40:40;1.67;;;1.15;;
39214;SDS011;24932;51.746;14.334;2022-10-16T09:44:41;2.1;;;1.52;;
39214;SDS011;24932;51.746;14.334;2022-10-16T09:48:43;1.87;;;0.93;;
39214;SDS011;24932;51.746;14.334;2022-10-16T09:52:40;1.65;;;0.9;;
39214;SDS011;24932;51.746;14.334;2022-10-16T09:56:40;0.9;;;0.73;;
39214;SDS011;24932;51.746;14.334;2022-10-16T10:00:41;0.68;;;0.62;;
39214;SDS011;24932;51.746;14.334;2022-10-16T10:04:41;0.6;;;0.45;;
39214;SDS011;24932;51.746;14.334;2022-10-16T10:08:40;0.5;;;0.4;;
39214;SDS011;24932;51.746;14.334;2022-10-16T10:12:39;1.55;;;0.4;;
39214;SDS011;24932;51.746;14.334;2022-10-16T10:16:40;0.47;;;0.4;;
39214;SDS011;24932;51.746;14.334;2022-10-16T10:20:41;0.52;;;0.5;;
39214;SDS011;24932;51.746;14.334;2022-10-16T10:24:40;0.65;;;0.3;;
39214;SDS011;24932;51.746;14.334;2022-10-16T10:28:44;0.88;;;0.3;;
39214;SDS011;24932;51.746;14.334;2022-10-16T10:32:41;1.4;;;0.25;;
39214;SDS011;24932;51.746;14.334;2022-10-16T10:36:41;0.65;;;0.3;;
39214;SDS011;24932;51.746;14.334;2022-10-16T10:40:44;2.47;;;0.3;;
39214;SDS011;24932;51.746;14.334;2022-10-16T10:44:46;0.4;;;0.2;;
39214;SDS011;24932;51.746;14.334;2022-10-16T10:48:46;0.8;;;0.28;;
39214;SDS011;24932;51.746;14.334;2022-10-16T10:52:42;0.1;;;0.1;;
39214;SDS011;24932;51.746;14.334;2022-10-16T10:56:42;1.45;;;0.2;;
39214;SDS011;24932;51.746;14.334;2022-10-16T11:00:42;0.52;;;0.28;;
39214;SDS011;24932;51.746;14.334;2022-10-16T11:04:45;1.27;;;0.25;;
39214;SDS011;24932;51.746;14.334;2022-10-16T11:08:40;0.73;;;0.2;;
39214;SDS011;24932;51.746;14.334;2022-10-16T11:12:42;0.3;;;0.3;;
39214;SDS011;24932;51.746;14.334;2022-10-16T11:16:42;0.2;;;0.2;;
39214;SDS011;24932;51.746;14.334;2022-10-16T11:20:42;1.35;;;0.3;;
39214;SDS011;24932;51.746;14.334;2022-10-16T11:24:41;0.5;;;0.3;;
39214;SDS011;24932;51.746;14.334;2022-10-16T11:28:42;0.2;;;0.2;;
39214;SDS011;24932;51.746;14.334;2022-10-16T11:32:42;0.35;;;0.35;;
39214;SDS011;24932;51.746;14.334;2022-10-16T11:36:40;0.32;;;0.2;;
39214;SDS011;24932;51.746;14.334;2022-10-16T11:40:41;0.5;;;0.1;;
39214;SDS011;24932;51.746;14.334;2022-10-16T11:44:43;0.3;;;0.3;;
39214;SDS011;24932;51.746;14.334;2022-10-16T11:48:41;0.98;;;0.2;;
39214;SDS011;24932;51.746;14.334;2022-10-16T11:52:42;0.22;;;0.2;;
39214;SDS011;24932;51.746;14.334;2022-10-16T11:56:40;3.72;;;0.35;;
39214;SDS011;24932;51.746;14.334;2022-10-16T12:00:42;1.45;;;0.3;;
39214;SDS011;24932;51.746;14.334;2022-10-16T12:04:41;0.6;;;0.3;;
39214;SDS011;24932;51.746;14.334;2022-10-16T12:08:40;0.17;;;0.17;;
39214;SDS011;24932;51.746;14.334;2022-10-16T12:12:40;1.65;;;0.3;;
39214;SDS011;24932;51.746;14.334;2022-10-16T12:16:50;1.12;;;0.2;;
39214;SDS011;24932;51.746;14.334;2022-10-16T12:20:40;0.5;;;0.17;;
39214;SDS011;24932;51.746;14.334;2022-10-16T12:24:41;0.57;;;0.2;;
39214;SDS011;24932;51.746;14.334;2022-10-16T12:28:40;0.3;;;0.3;;
39214;SDS011;24932;51.746;14.334;2022-10-16T12:32:52;2.83;;;0.2;;
39214;SDS011;24932;51.746;14.334;2022-10-16T12:36:41;1.58;;;0.3;;
39214;SDS011;24932;51.746;14.334;2022-10-16T12:40:40;2.03;;;0.2;;
39214;SDS011;24932;51.746;14.334;2022-10-16T12:44:40;0.62;;;0.3;;
39214;SDS011;24932;51.746;14.334;2022-10-16T12:49:20;2.15;;;0.2;;
39214;SDS011;24932;51.746;14.334;2022-10-16T12:52:40;2.58;;;1.27;;
39214;SDS011;24932;51.746;14.334;2022-10-16T12:56:44;0.55;;;0.3;;
39214;SDS011;24932;51.746;14.334;2022-10-16T13:00:43;2.7;;;0.35;;
39214;SDS011;24932;51.746;14.334;2022-10-16T13:04:43;2.4;;;0.57;;
39214;SDS011;24932;51.746;14.334;2022-10-16T13:08:45;1.0;;;0.62;;
39214;SDS011;24932;51.746;14.334;2022-10-16T13:12:45;5.57;;;1.45;;
39214;SDS011;24932;51.746;14.334;2022-10-16T13:16:44;0.2;;;0.2;;
39214;SDS011;24932;51.746;14.334;2022-10-16T13:20:46;1.17;;;0.3;;
39214;SDS011;24932;51.746;14.334;2022-10-16T13:24:44;0.45;;;0.22;;
39214;SDS011;24932;51.746;14.334;2022-10-16T13:28:40;0.6;;;0.3;;
39214;SDS011;24932;51.746;14.334;2022-10-16T13:32:43;1.02;;;0.5;;
39214;SDS011;24932;51.746;14.334;2022-10-16T13:36:43;0.88;;;0.43;;
39214;SDS011;24932;51.746;14.334;2022-10-16T13:40:48;10.6;;;1.27;;
39214;SDS011;24932;51.746;14.334;2022-10-16T13:44:41;0.77;;;0.3;;
39214;SDS011;24932;51.746;14.334;2022-10-16T13:48:40;0.22;;;0.22;;
39214;SDS011;24932;51.746;14.334;2022-10-16T13:52:41;0.17;;;0.17;;
39214;SDS011;24932;51.746;14.334;2022-10-16T13:56:40;0.98;;;0.3;;
39214;SDS011;24932;51.746;14.334;2022-10-16T14:00:40;3.55;;;0.4;;
39214;SDS011;24932;51.746;14.334;2022-10-16T14:04:40;5.57;;;0.32;;
39214;SDS011;24932;51.746;14.334;2022-10-16T14:08:41;0.37;;;0.3;;
39214;SDS011;24932;51.746;14.334;2022-10-16T14:12:40;0.2;;;0.2;;
39214;SDS011;24932;51.746;14.334;2022-10-16T14:16:40;0.6;;;0.3;;
39214;SDS011;24932;51.746;14.334;2022-10-16T14:20:41;1.23;;;0.5;;
39214;SDS011;24932;51.746;14.334;2022-10-16T14:24:40;3.7;;;0.3;;
39214;SDS011;24932;51.746;14.334;2022-10-16T14:28:41;0.35;;;0.3;;
39214;SDS011;24932;51.746;14.334;2022-10-16T14:32:40;1.0;;;0.3;;
39214;SDS011;24932;51.746;14.334;2022-10-16T14:36:40;0.28;;;0.28;;
39214;SDS011;24932;51.746;14.334;2022-10-16T14:40:45;0.32;;;0.32;;
39214;SDS011;24932;51.746;14.334;2022-10-16T14:44:41;1.2;;;0.32;;
39214;SDS011;24932;51.746;14.334;2022-10-16T14:48:40;2.9;;;0.3;;
39214;SDS011;24932;51.746;14.334;2022-10-16T14:52:41;0.25;;;0.25;;
39214;SDS011;24932;51.746;14.334;2022-10-16T14:56:43;0.85;;;0.3;;
39214;SDS011;24932;51.746;14.334;2022-10-16T15:00:40;1.08;;;0.35;;
39214;SDS011;24932;51.746;14.334;2022-10-16T15:04:41;0.73;;;0.52;;
39214;SDS011;24932;51.746;14.334;2022-10-16T15:08:41;1.08;;;0.4;;
39214;SDS011;24932;51.746;14.334;2022-10-16T15:12:40;0.85;;;0.6;;
39214;SDS011;24932;51.746;14.334;2022-10-16T15:16:41;3.87;;;0.62;;
39214;SDS011;24932;51.746;14.334;2022-10-16T15:20:40;0.4;;;0.4;;
39214;SDS011;24932;51.746;14.334;2022-10-16T15:24:41;2.42;;;0.5;;
39214;SDS011;24932;51.746;14.334;2022-10-16T15:28:40;0.85;;;0.4;;
39214;SDS011;24932;51.746;14.334;2022-10-16T15:32:40;0.73;;;0.5;;
39214;SDS011;24932;51.746;14.334;2022-10-16T15:36:40;3.65;;;0.7;;
39214;SDS011;24932;51.746;14.334;2022-10-16T15:40:41;1.17;;;0.8;;
39214;SDS011;24932;51.746;14.334;2022-10-16T15:44:40;0.7;;;0.7;;
39214;SDS011;24932;51.746;14.334;2022-10-16T15:48:40;1.73;;;1.2;;
39214;SDS011;24932;51.746;14.334;2022-10-16T15:52:40;2.1;;;1.3;;
39214;SDS011;24932;51.746;14.334;2022-10-16T15:56:40;3.53;;;0.93;;
39214;SDS011;24932;51.746;14.334;2022-10-16T16:00:40;3.25;;;1.2;;
39214;SDS011;24932;51.746;14.334;2022-10-16T16:04:45;1.7;;;1.02;;
39214;SDS011;24932;51.746;14.334;2022-10-16T16:08:40;1.12;;;1.02;;
39214;SDS011;24932;51.746;14.334;2022-10-16T16:12:40;2.25;;;1.83;;
39214;SDS011;24932;51.746;14.334;2022-10-16T16:16:40;1.75;;;1.42;;
39214;SDS011;24932;51.746;14.334;2022-10-16T16:20:40;2.5;;;1.83;;
39214;SDS011;24932;51.746;14.334;2022-10-16T16:24:40;9.07;;;2.85;;
39214;SDS011;24932;51.746;14.334;2022-10-16T16:28:41;5.35;;;3.28;;
39214;SDS011;24932;51.746;14.334;2022-10-16T16:32:40;8.75;;;4.53;;
39214;SDS011;24932;51.746;14.334;2022-10-16T16:36:40;5.32;;;3.17;;
39214;SDS011;24932;51.746;14.334;2022-10-16T16:40:40;8.13;;;3.12;;
39214;SDS011;24932;51.746;14.334;2022-10-16T16:44:40;13.05;;;3.62;;
39214;SDS011;24932;51.746;14.334;2022-10-16T16:48:41;9.4;;;4.03;;
39214;SDS011;24932;51.746;14.334;2022-10-16T16:52:40;9.6;;;4.32;;
39214;SDS011;24932;51.746;14.334;2022-10-16T16:56:41;5.97;;;3.85;;
39214;SDS011;24932;51.746;14.334;2022-10-16T17:00:57;5.75;;;4.6;;
39214;SDS011;24932;51.746;14.334;2022-10-16T17:04:40;9.05;;;4.68;;
39214;SDS011;24932;51.746;14.334;2022-10-16T17:08:40;9.27;;;3.92;;
39214;SDS011;24932;51.746;14.334;2022-10-16T17:12:40;8.73;;;4.43;;
39214;SDS011;24932;51.746;14.334;2022-10-16T17:16:40;10.95;;;5.9;;
39214;SDS011;24932;51.746;14.334;2022-10-16T17:20:40;6.9;;;5.62;;
39214;SDS011;24932;51.746;14.334;2022-10-16T17:24:40;9.82;;;5.75;;
39214;SDS011;24932;51.746;14.334;2022-10-16T17:28:41;7.35;;;5.68;;
39214;SDS011;24932;51.746;14.334;2022-10-16T17:32:40;9.4;;;5.4;;
39214;SDS011;24932;51.746;14.334;2022-10-16T17:36:40;7.0;;;5.53;;
39214;SDS011;24932;51.746;14.334;2022-10-16T17:40:40;8.98;;;6.43;;
39214;SDS011;24932;51.746;14.334;2022-10-16T17:44:40;17.9;;;6.8;;
39214;SDS011;24932;51.746;14.334;2022-10-16T17:48:41;13.27;;;5.75;;
39214;SDS011;24932;51.746;14.334;2022-10-16T17:52:41;10.2;;;5.82;;
39214;SDS011;24932;51.746;14.334;2022-10-16T17:56:40;14.45;;;6.5;;
39214;SDS011;24932;51.746;14.334;2022-10-16T18:00:40;10.25;;;6.35;;
39214;SDS011;24932;51.746;14.334;2022-10-16T18:04:40;13.32;;;5.8;;
39214;SDS011;24932;51.746;14.334;2022-10-16T18:08:40;11.0;;;6.03;;
39214;SDS011;24932;51.746;14.334;2022-10-16T18:12:40;8.38;;;5.85;;
39214;SDS011;24932;51.746;14.334;2022-10-16T18:16:41;8.43;;;6.03;;
39214;SDS011;24932;51.746;14.334;2022-10-16T18:20:40;11.12;;;6.57;;
39214;SDS011;24932;51.746;14.334;2022-10-16T18:24:40;10.9;;;7.35;;
39214;SDS011;24932;51.746;14.334;2022-10-16T18:28:40;12.1;;;6.62;;
39214;SDS011;24932;51.746;14.334;2022-10-16T18:32:40;8.2;;;5.95;;
39214;SDS011;24932;51.746;14.334;2022-10-16T18:36:40;10.55;;;6.97;;
39214;SDS011;24932;51.746;14.334;2022-10-16T18:40:40;9.6;;;6.32;;
39214;SDS011;24932;51.746;14.334;2022-10-16T18:44:40;10.3;;;6.5;;
39214;SDS011;24932;51.746;14.334;2022-10-16T18:48:40;7.35;;;4.75;;
39214;SDS011;24932;51.746;14.334;2022-10-16T18:52:45;9.05;;;5.1;;
39214;SDS011;24932;51.746;14.334;2022-10-16T18:56:40;6.15;;;4.6;;
39214;SDS011;24932;51.746;14.334;2022-10-16T19:00:40;5.93;;;5.15;;
39214;SDS011;24932;51.746;14.334;2022-10-16T19:04:40;6.82;;;6.1;;
39214;SDS011;24932;51.746;14.334;2022-10-16T19:08:40;11.23;;;4.65;;
39214;SDS011;24932;51.746;14.334;2022-10-16T19:12:40;7.72;;;4.22;;
39214;SDS011;24932;51.746;14.334;2022-10-16T19:16:40;6.8;;;4.75;;
39214;SDS011;24932;51.746;14.334;2022-10-16T19:20:40;8.8;;;4.4;;
39214;SDS011;24932;51.746;14.334;2022-10-16T19:24:40;5.7;;;4.4;;
39214;SDS011;24932;51.746;14.334;2022-10-16T19:28:41;6.03;;;4.87;;
39214;SDS011;24932;51.746;14.334;2022-10-16T19:32:40;7.68;;;4.6;;
39214;SDS011;24932;51.746;14.334;2022-10-16T19:36:39;7.55;;;5.0;;
39214;SDS011;24932;51.746;14.334;2022-10-16T19:40:40;8.13;;;4.43;;
39214;SDS011;24932;51.746;14.334;2022-10-16T19:44:40;5.82;;;4.5;;
39214;SDS011;24932;51.746;14.334;2022-10-16T19:48:40;6.03;;;4.37;;
39214;SDS011;24932;51.746;14.334;2022-10-16T19:52:40;5.47;;;4.53;;
39214;SDS011;24932;51.746;14.334;2022-10-16T19:56:40;6.28;;;4.93;;
39214;SDS011;24932;51.746;14.334;2022-10-16T20:00:40;8.73;;;5.5;;
39214;SDS011;24932;51.746;14.334;2022-10-16T20:04:40;8.02;;;5.65;;
39214;SDS011;24932;51.746;14.334;2022-10-16T20:08:40;6.57;;;5.93;;
39214;SDS011;24932;51.746;14.334;2022-10-16T20:12:40;10.15;;;7.65;;
39214;SDS011;24932;51.746;14.334;2022-10-16T20:16:40;13.43;;;7.7;;
39214;SDS011;24932;51.746;14.334;2022-10-16T20:20:41;10.52;;;7.3;;
39214;SDS011;24932;51.746;14.334;2022-10-16T20:24:40;12.25;;;8.27;;
39214;SDS011;24932;51.746;14.334;2022-10-16T20:28:41;16.85;;;8.48;;
39214;SDS011;24932;51.746;14.334;2022-10-16T20:32:40;13.23;;;8.45;;
39214;SDS011;24932;51.746;14.334;2022-10-16T20:36:40;13.2;;;8.3;;
39214;SDS011;24932;51.746;14.334;2022-10-16T20:40:41;12.82;;;8.43;;
39214;SDS011;24932;51.746;14.334;2022-10-16T20:44:40;10.68;;;8.5;;
39214;SDS011;24932;51.746;14.334;2022-10-16T20:48:41;16.45;;;9.07;;
39214;SDS011;24932;51.746;14.334;2022-10-16T20:52:40;11.52;;;7.95;;
39214;SDS011;24932;51.746;14.334;2022-10-16T20:56:41;13.2;;;7.32;;
39214;SDS011;24932;51.746;14.334;2022-10-16T21:00:40;9.1;;;7.72;;
39214;SDS011;24932;51.746;14.334;2022-10-16T21:04:40;8.13;;;7.28;;
39214;SDS011;24932;51.746;14.334;2022-10-16T21:08:41;8.25;;;7.07;;
39214;SDS011;24932;51.746;14.334;2022-10-16T21:12:40;11.9;;;7.97;;
39214;SDS011;24932;51.746;14.334;2022-10-16T21:16:40;16.6;;;9.05;;
39214;SDS011;24932;51.746;14.334;2022-10-16T21:20:41;9.3;;;7.28;;
39214;SDS011;24932;51.746;14.334;2022-10-16T21:24:40;9.2;;;7.5;;
39214;SDS011;24932;51.746;14.334;2022-10-16T21:28:40;14.15;;;8.25;;
39214;SDS011;24932;51.746;14.334;2022-10-16T21:32:40;11.05;;;7.8;;
39214;SDS011;24932;51.746;14.334;2022-10-16T21:36:40;10.27;;;8.23;;
39214;SDS011;24932;51.746;14.334;2022-10-16T21:40:40;13.52;;;8.32;;
39214;SDS011;24932;51.746;14.334;2022-10-16T21:44:40;10.0;;;8.93;;
39214;SDS011;24932;51.746;14.334;2022-10-16T21:48:40;19.12;;;8.68;;
39214;SDS011;24932;51.746;14.334;2022-10-16T21:52:41;9.77;;;8.1;;
39214;SDS011;24932;51.746;14.334;2022-10-16T21:56:40;15.4;;;9.05;;
39214;SDS011;24932;51.746;14.334;2022-10-16T22:00:40;16.2;;;9.18;;
39214;SDS011;24932;51.746;14.334;2022-10-16T22:04:40;13.02;;;9.27;;
39214;SDS011;24932;51.746;14.334;2022-10-16T22:08:40;12.3;;;9.32;;
39214;SDS011;24932;51.746;14.334;2022-10-16T22:12:40;14.77;;;8.68;;
39214;SDS011;24932;51.746;14.334;2022-10-16T22:16:40;10.48;;;9.38;;
39214;SDS011;24932;51.746;14.334;2022-10-16T22:20:43;16.45;;;9.27;;
39214;SDS011;24932;51.746;14.334;2022-10-16T22:24:40;10.88;;;8.9;;
39214;SDS011;24932;51.746;14.334;2022-10-16T22:28:40;15.52;;;8.88;;
39214;SDS011;24932;51.746;14.334;2022-10-16T22:32:40;12.05;;;8.5;;
39214;SDS011;24932;51.746;14.334;2022-10-16T22:36:40;9.35;;;7.85;;
39214;SDS011;24932;51.746;14.334;2022-10-16T22:40:40;11.48;;;8.6;;
39214;SDS011;24932;51.746;14.334;2022-10-16T22:44:40;12.57;;;8.4;;
39214;SDS011;24932;51.746;14.334;2022-10-16T22:48:40;15.18;;;9.0;;
39214;SDS011;24932;51.746;14.334;2022-10-16T22:52:41;12.95;;;9.18;;
39214;SDS011;24932;51.746;14.334;2022-10-16T22:56:40;17.55;;;9.35;;
39214;SDS011;24932;51.746;14.334;2022-10-16T23:00:42;14.2;;;10.2;;
39214;SDS011;24932;51.746;14.334;2022-10-16T23:04:40;25.33;;;10.43;;
39214;SDS011;24932;51.746;14.334;2022-10-16T23:08:40;10.2;;;8.1;;
39214;SDS011;24932;51.746;14.334;2022-10-16T23:12:40;11.9;;;9.6;;
39214;SDS011;24932;51.746;14.334;2022-10-16T23:16:40;15.82;;;10.1;;
39214;SDS011;24932;51.746;14.334;2022-10-16T23:20:40;11.0;;;9.82;;
39214;SDS011;24932;51.746;14.334;2022-10-16T23:24:40;17.33;;;10.38;;
39214;SDS011;24932;51.746;14.334;2022-10-16T23:28:40;16.52;;;11.35;;
39214;SDS011;24932;51.746;14.334;2022-10-16T23:32:40;16.52;;;10.8;;
39214;SDS011;24932;51.746;14.334;2022-10-16T23:36:40;21.08;;;11.82;;
39214;SDS011;24932;51.746;14.334;2022-10-16T23:40:40;14.63;;;11.2;;